createdAt,value
2023-03-23T00:00:04.052Z,11.44
2023-03-23T00:01:04.060Z,11.44
2023-03-23T00:02:04.081Z,11.41
2023-03-23T00:03:04.042Z,11.39
2023-03-23T00:04:04.040Z,11.36
2023-03-23T00:05:04.174Z,11.38
2023-03-23T00:06:04.364Z,11.46
2023-03-23T00:07:03.992Z,11.53
2023-03-23T00:08:05.081Z,11.53
2023-03-23T00:09:04.142Z,11.53
2023-03-23T00:10:04.037Z,11.50
2023-03-23T00:11:03.984Z,11.52
2023-03-23T00:12:04.673Z,11.57
2023-03-23T00:13:03.983Z,11.57
2023-03-23T00:14:04.133Z,11.59
2023-03-23T00:15:03.933Z,11.59
2023-03-23T00:16:04.473Z,11.59
2023-03-23T00:17:03.918Z,11.56
2023-03-23T00:18:03.907Z,11.53
2023-03-23T00:19:03.996Z,11.54
2023-03-23T00:20:03.928Z,11.54
2023-03-23T00:21:03.968Z,11.54
2023-03-23T00:22:03.869Z,11.57
2023-03-23T00:23:03.994Z,11.59
2023-03-23T00:24:03.906Z,11.62
2023-03-23T00:25:04.062Z,11.62
2023-03-23T00:26:04.000Z,11.64
2023-03-23T00:27:04.000Z,11.67
2023-03-23T00:28:03.953Z,11.78
2023-03-23T00:29:03.770Z,11.86
2023-03-23T00:30:03.767Z,11.89
2023-03-23T00:31:03.740Z,11.90
2023-03-23T00:32:03.769Z,11.87
2023-03-23T00:33:03.828Z,11.85
2023-03-23T00:34:03.798Z,11.82
2023-03-23T00:35:03.728Z,11.83
2023-03-23T00:36:04.061Z,11.80
2023-03-23T00:37:03.691Z,11.80
2023-03-23T00:38:03.803Z,11.85
2023-03-23T00:39:03.717Z,11.87
2023-03-23T00:40:03.837Z,11.87
2023-03-23T00:41:03.736Z,11.87
2023-03-23T00:42:03.688Z,11.87
2023-03-23T00:43:03.707Z,11.89
2023-03-23T00:44:03.621Z,11.93
2023-03-23T00:45:03.732Z,11.93
2023-03-23T00:46:03.641Z,11.96
2023-03-23T00:47:03.806Z,11.93
2023-03-23T00:48:03.607Z,11.90
2023-03-23T00:49:03.776Z,11.87
2023-03-23T00:50:03.585Z,11.96
2023-03-23T00:51:04.039Z,12.06
2023-03-23T00:52:03.724Z,12.05
2023-03-23T00:53:03.734Z,12.05
2023-03-23T00:54:03.682Z,12.01
2023-03-23T00:55:03.657Z,11.99
2023-03-23T00:56:03.673Z,11.94
2023-03-23T00:57:03.736Z,11.94
2023-03-23T00:58:03.779Z,11.94
2023-03-23T00:59:03.487Z,12.04
2023-03-23T01:00:05.601Z,12.15
2023-03-23T01:01:03.566Z,12.20
2023-03-23T01:02:03.565Z,12.19
2023-03-23T01:03:03.660Z,12.19
2023-03-23T01:04:03.735Z,12.16
2023-03-23T01:05:03.519Z,12.16
2023-03-23T01:06:03.528Z,12.15
2023-03-23T01:07:03.405Z,12.15
2023-03-23T01:08:03.383Z,12.16
2023-03-23T01:09:03.446Z,12.20
2023-03-23T01:10:03.626Z,12.19
2023-03-23T01:11:03.372Z,12.16
2023-03-23T01:12:04.103Z,12.13
2023-03-23T01:13:03.344Z,12.16
2023-03-23T01:14:03.312Z,12.15
2023-03-23T01:15:03.337Z,12.12
2023-03-23T01:16:03.342Z,12.12
2023-03-23T01:17:03.281Z,12.15
2023-03-23T01:18:03.421Z,12.19
2023-03-23T01:19:03.283Z,12.26
2023-03-23T01:20:03.495Z,12.30
2023-03-23T01:21:03.361Z,12.29
2023-03-23T01:22:03.436Z,12.27
2023-03-23T01:23:03.244Z,12.26
2023-03-23T01:24:03.456Z,12.24
2023-03-23T01:25:03.279Z,12.29
2023-03-23T01:26:03.444Z,12.29
2023-03-23T01:27:03.368Z,12.30
2023-03-23T01:28:03.419Z,12.37
2023-03-23T01:29:03.205Z,12.48
2023-03-23T01:30:03.178Z,12.51
2023-03-23T01:31:03.166Z,12.49
2023-03-23T01:32:03.358Z,12.46
2023-03-23T01:33:03.185Z,12.48
2023-03-23T01:34:03.128Z,12.48
2023-03-23T01:35:03.286Z,12.46
2023-03-23T01:36:03.605Z,12.45
2023-03-23T01:37:03.145Z,12.42
2023-03-23T01:38:03.081Z,12.42
2023-03-23T01:39:03.229Z,12.48
2023-03-23T01:40:03.409Z,12.48
2023-03-23T01:41:03.184Z,12.44
2023-03-23T01:42:03.509Z,12.39
2023-03-23T01:43:03.047Z,12.38
2023-03-23T01:44:03.134Z,12.38
2023-03-23T01:45:03.241Z,12.37
2023-03-23T01:46:03.013Z,12.37
2023-03-23T01:47:03.018Z,12.34
2023-03-23T01:48:03.015Z,12.33
2023-03-23T01:49:03.007Z,12.37
2023-03-23T01:50:03.039Z,12.37
2023-03-23T01:51:03.156Z,12.37
2023-03-23T01:52:02.970Z,12.37
2023-03-23T01:53:03.885Z,12.37
2023-03-23T01:54:03.350Z,12.41
2023-03-23T01:55:02.961Z,12.46
2023-03-23T01:56:03.093Z,12.48
2023-03-23T01:57:02.934Z,12.51
2023-03-23T01:58:03.665Z,12.48
2023-03-23T01:59:03.052Z,12.49
2023-03-23T02:00:02.969Z,12.51
2023-03-23T02:01:03.043Z,12.56
2023-03-23T02:02:02.957Z,12.60
2023-03-23T02:03:03.126Z,12.59
2023-03-23T02:04:02.824Z,12.57
2023-03-23T02:05:02.864Z,12.57
2023-03-23T02:06:02.837Z,12.56
2023-03-23T02:07:02.867Z,12.52
2023-03-23T02:08:02.818Z,12.49
2023-03-23T02:09:10.600Z,12.45
2023-03-23T02:10:02.885Z,12.42
2023-03-23T02:11:03.147Z,12.44
2023-03-23T02:12:02.960Z,12.48
2023-03-23T02:13:02.839Z,12.57
2023-03-23T02:14:02.764Z,12.54
2023-03-23T02:15:02.921Z,12.51
2023-03-23T02:16:02.889Z,12.48
2023-03-23T02:17:02.712Z,12.46
2023-03-23T02:18:02.687Z,12.45
2023-03-23T02:19:02.746Z,12.45
2023-03-23T02:20:02.698Z,12.44
2023-03-23T02:21:02.811Z,12.41
2023-03-23T02:22:02.724Z,12.42
2023-03-23T02:23:02.831Z,12.41
2023-03-23T02:24:02.634Z,12.39
2023-03-23T02:25:02.812Z,12.37
2023-03-23T02:26:02.803Z,12.37
2023-03-23T02:27:02.810Z,12.34
2023-03-23T02:28:02.788Z,12.31
2023-03-23T02:29:02.692Z,12.23
2023-03-23T02:30:02.743Z,12.19
2023-03-23T02:31:02.989Z,12.09
2023-03-23T02:32:02.892Z,12.08
2023-03-23T02:33:02.722Z,12.05
2023-03-23T02:34:02.536Z,12.04
2023-03-23T02:35:02.530Z,11.99
2023-03-23T02:36:02.754Z,12.06
2023-03-23T02:37:02.510Z,12.09
2023-03-23T02:38:02.482Z,12.08
2023-03-23T02:39:02.525Z,12.05
2023-03-23T02:40:02.637Z,12.06
2023-03-23T02:41:02.660Z,12.08
2023-03-23T02:42:02.664Z,12.08
2023-03-23T02:43:02.446Z,12.06
2023-03-23T02:44:02.446Z,12.02
2023-03-23T02:45:02.464Z,12.02
2023-03-23T02:46:02.489Z,12.01
2023-03-23T02:47:02.412Z,12.01
2023-03-23T02:48:02.572Z,11.97
2023-03-23T02:49:02.533Z,11.93
2023-03-23T02:50:02.521Z,11.93
2023-03-23T02:51:02.845Z,11.89
2023-03-23T02:52:02.473Z,11.87
2023-03-23T02:53:02.353Z,11.86
2023-03-23T02:54:02.358Z,11.87
2023-03-23T02:55:02.577Z,11.87
2023-03-23T02:56:02.356Z,11.86
2023-03-23T02:57:02.319Z,11.90
2023-03-23T02:58:02.289Z,11.94
2023-03-23T02:59:02.282Z,11.94
2023-03-23T03:00:02.523Z,11.96
2023-03-23T03:01:02.288Z,11.93
2023-03-23T03:02:02.243Z,11.90
2023-03-23T03:03:02.284Z,11.90
2023-03-23T03:04:02.223Z,11.87
2023-03-23T03:05:02.243Z,11.87
2023-03-23T03:06:02.224Z,11.87
2023-03-23T03:07:02.219Z,11.93
2023-03-23T03:08:02.233Z,12.01
2023-03-23T03:09:02.237Z,12.01
2023-03-23T03:10:02.210Z,12.01
2023-03-23T03:11:02.301Z,11.97
2023-03-23T03:12:02.157Z,11.94
2023-03-23T03:13:02.147Z,11.93
2023-03-23T03:14:02.247Z,11.89
2023-03-23T03:15:02.237Z,11.90
2023-03-23T03:16:02.200Z,11.90
2023-03-23T03:17:02.159Z,11.87
2023-03-23T03:18:02.271Z,11.87
2023-03-23T03:19:02.136Z,11.87
2023-03-23T03:20:03.407Z,11.89
2023-03-23T03:21:02.342Z,11.89
2023-03-23T03:22:02.043Z,11.93
2023-03-23T03:23:02.175Z,11.93
2023-03-23T03:24:02.208Z,11.97
2023-03-23T03:25:18.639Z,12.02
2023-03-23T03:26:02.088Z,12.05
2023-03-23T03:27:02.041Z,12.06
2023-03-23T03:28:03.915Z,12.09
2023-03-23T03:29:02.106Z,12.09
2023-03-23T03:30:02.393Z,12.06
2023-03-23T03:31:02.111Z,12.09
2023-03-23T03:32:02.161Z,12.09
2023-03-23T03:33:02.649Z,12.09
2023-03-23T03:34:02.422Z,12.09
2023-03-23T03:35:02.092Z,12.09
2023-03-23T03:36:02.173Z,12.08
2023-03-23T03:37:02.108Z,12.05
2023-03-23T03:38:01.932Z,12.08
2023-03-23T03:39:01.937Z,12.06
2023-03-23T03:40:02.161Z,12.05
2023-03-23T03:41:01.909Z,12.02
2023-03-23T03:42:02.211Z,12.02
2023-03-23T03:43:02.047Z,11.99
2023-03-23T03:44:01.865Z,12.02
2023-03-23T03:45:01.934Z,12.02
2023-03-23T03:46:01.886Z,12.04
2023-03-23T03:47:02.050Z,12.02
2023-03-23T03:48:02.065Z,12.01
2023-03-23T03:49:01.784Z,11.99
2023-03-23T03:50:01.925Z,12.05
2023-03-23T03:51:01.876Z,12.06
2023-03-23T03:52:01.892Z,12.05
2023-03-23T03:53:01.778Z,12.05
2023-03-23T03:54:01.931Z,12.05
2023-03-23T03:55:01.761Z,12.02
2023-03-23T03:56:01.722Z,12.01
2023-03-23T03:57:01.899Z,11.99
2023-03-23T03:58:02.078Z,11.96
2023-03-23T03:59:21.678Z,12.01
2023-03-23T04:00:01.710Z,12.01
2023-03-23T04:01:01.656Z,12.02
2023-03-23T04:02:01.674Z,12.02
2023-03-23T04:03:01.706Z,12.04
2023-03-23T04:04:01.663Z,12.04
2023-03-23T04:05:01.874Z,12.09
2023-03-23T04:06:01.646Z,12.09
2023-03-23T04:07:01.645Z,12.09
2023-03-23T04:08:09.473Z,12.08
2023-03-23T04:09:08.252Z,12.06
2023-03-23T04:10:01.593Z,12.05
2023-03-23T04:11:01.794Z,12.06
2023-03-23T04:12:01.637Z,12.08
2023-03-23T04:13:01.683Z,12.09
2023-03-23T04:14:01.612Z,12.09
2023-03-23T04:15:05.953Z,12.09
2023-03-23T04:16:07.178Z,12.15
2023-03-23T04:17:01.666Z,12.20
2023-03-23T04:18:01.538Z,12.24
2023-03-23T04:19:01.671Z,12.27
2023-03-23T04:20:01.640Z,12.29
2023-03-23T04:21:01.624Z,12.27
2023-03-23T04:22:01.752Z,12.30
2023-03-23T04:23:01.630Z,12.29
2023-03-23T04:24:01.527Z,12.30
2023-03-23T04:25:01.648Z,12.31
2023-03-23T04:26:01.626Z,12.31
2023-03-23T04:27:02.894Z,12.33
2023-03-23T04:28:01.751Z,12.31
2023-03-23T04:29:01.495Z,12.31
2023-03-23T04:30:01.749Z,12.30
2023-03-23T04:31:01.564Z,12.27
2023-03-23T04:32:01.583Z,12.30
2023-03-23T04:33:02.168Z,12.33
2023-03-23T04:34:01.416Z,12.34
2023-03-23T04:35:12.431Z,12.33
2023-03-23T04:36:01.318Z,12.33
2023-03-23T04:37:01.506Z,12.31
2023-03-23T04:38:01.306Z,12.34
2023-03-23T04:39:01.318Z,12.37
2023-03-23T04:40:01.314Z,12.38
2023-03-23T04:41:01.308Z,12.38
2023-03-23T04:42:01.432Z,12.38
2023-03-23T04:43:01.424Z,12.41
2023-03-23T04:44:01.263Z,12.41
2023-03-23T04:45:01.471Z,12.41
2023-03-23T04:46:01.314Z,12.39
2023-03-23T04:47:02.044Z,12.44
2023-03-23T04:48:01.424Z,12.48
2023-03-23T04:49:01.233Z,12.51
2023-03-23T04:50:01.176Z,12.54
2023-03-23T04:51:01.340Z,12.52
2023-03-23T04:52:01.176Z,12.52
2023-03-23T04:53:01.210Z,12.49
2023-03-23T04:54:01.153Z,12.49
2023-03-23T04:55:01.136Z,12.48
2023-03-23T04:56:01.202Z,12.46
2023-03-23T04:57:01.363Z,12.46
2023-03-23T04:58:01.273Z,12.49
2023-03-23T04:59:01.125Z,12.48
2023-03-23T05:00:01.207Z,12.46
2023-03-23T05:01:01.241Z,12.46
2023-03-23T05:02:14.423Z,12.46
2023-03-23T05:03:01.377Z,12.44
2023-03-23T05:04:01.201Z,12.44
2023-03-23T05:05:01.240Z,12.39
2023-03-23T05:06:01.196Z,12.39
2023-03-23T05:07:01.306Z,12.41
2023-03-23T05:08:01.013Z,12.42
2023-03-23T05:09:01.285Z,12.44
2023-03-23T05:10:01.103Z,12.44
2023-03-23T05:11:01.287Z,12.45
2023-03-23T05:12:01.469Z,12.48
2023-03-23T05:13:01.140Z,12.49
2023-03-23T05:14:01.068Z,12.51
2023-03-23T05:15:01.028Z,12.57
2023-03-23T05:16:01.065Z,12.59
2023-03-23T05:17:01.483Z,12.57
2023-03-23T05:18:01.109Z,12.60
2023-03-23T05:19:00.956Z,12.57
2023-03-23T05:20:01.625Z,12.54
2023-03-23T05:21:01.239Z,12.52
2023-03-23T05:22:00.858Z,12.52
2023-03-23T05:23:00.856Z,12.52
2023-03-23T05:24:00.828Z,12.52
2023-03-23T05:25:00.835Z,12.52
2023-03-23T05:26:01.045Z,12.52
2023-03-23T05:27:00.890Z,12.57
2023-03-23T05:28:01.070Z,12.59
2023-03-23T05:29:00.905Z,12.59
2023-03-23T05:30:00.854Z,12.60
2023-03-23T05:31:00.810Z,12.62
2023-03-23T05:32:00.780Z,12.62
2023-03-23T05:33:01.076Z,12.62
2023-03-23T05:34:01.386Z,12.59
2023-03-23T05:35:01.033Z,12.57
2023-03-23T05:36:01.076Z,12.59
2023-03-23T05:37:00.716Z,12.60
2023-03-23T05:38:02.193Z,12.62
2023-03-23T05:39:00.899Z,12.60
2023-03-23T05:40:00.887Z,12.60
2023-03-23T05:41:00.678Z,12.62
2023-03-23T05:42:00.676Z,12.63
2023-03-23T05:43:00.679Z,12.60
2023-03-23T05:44:00.643Z,12.60
2023-03-23T05:45:00.741Z,12.57
2023-03-23T05:46:00.882Z,12.60
2023-03-23T05:47:00.608Z,12.60
2023-03-23T05:48:00.610Z,12.62
2023-03-23T05:49:00.594Z,12.62
2023-03-23T05:50:00.692Z,12.63
2023-03-23T05:51:00.667Z,12.63
2023-03-23T05:52:00.575Z,12.63
2023-03-23T05:53:00.747Z,12.62
2023-03-23T05:54:00.580Z,12.62
2023-03-23T05:55:00.558Z,12.62
2023-03-23T05:56:00.523Z,12.60
2023-03-23T05:57:00.569Z,12.62
2023-03-23T05:58:00.511Z,12.62
2023-03-23T05:59:00.518Z,12.64
2023-03-23T06:00:00.520Z,12.63
2023-03-23T06:01:00.497Z,12.59
2023-03-23T06:02:00.673Z,12.59
2023-03-23T06:03:00.675Z,12.59
2023-03-23T06:04:00.637Z,12.60
2023-03-23T06:05:00.609Z,12.57
2023-03-23T06:06:00.618Z,12.56
2023-03-23T06:07:00.640Z,12.54
2023-03-23T06:08:00.643Z,12.52
2023-03-23T06:09:00.580Z,12.56
2023-03-23T06:10:00.397Z,12.59
2023-03-23T06:11:00.402Z,12.62
2023-03-23T06:12:00.386Z,12.63
2023-03-23T06:13:00.365Z,12.62
2023-03-23T06:14:00.376Z,12.63
2023-03-23T06:15:00.409Z,12.62
2023-03-23T06:16:00.353Z,12.62
2023-03-23T06:17:00.337Z,12.64
2023-03-23T06:18:00.728Z,12.66
2023-03-23T06:19:00.347Z,12.70
2023-03-23T06:20:00.327Z,12.69
2023-03-23T06:21:00.397Z,12.69
2023-03-23T06:22:00.534Z,12.66
2023-03-23T06:23:00.322Z,12.67
2023-03-23T06:24:00.490Z,12.66
2023-03-23T06:25:00.371Z,12.64
2023-03-23T06:26:04.539Z,12.62
2023-03-23T06:27:00.270Z,12.63
2023-03-23T06:28:00.970Z,12.63
2023-03-23T06:29:00.418Z,12.67
2023-03-23T06:30:00.427Z,12.69
2023-03-23T06:31:00.293Z,12.71
2023-03-23T06:32:00.198Z,12.75
2023-03-23T06:33:00.499Z,12.74
2023-03-23T06:34:00.386Z,12.75
2023-03-23T06:35:00.186Z,12.75
2023-03-23T06:36:00.388Z,12.77
2023-03-23T06:37:00.392Z,12.77
2023-03-23T06:38:00.145Z,12.77
2023-03-23T06:39:00.149Z,12.79
2023-03-23T06:40:00.185Z,12.82
2023-03-23T06:41:00.136Z,12.85
2023-03-23T06:42:00.158Z,12.87
2023-03-23T06:43:00.127Z,12.88
2023-03-23T06:44:00.135Z,12.88
2023-03-23T06:45:00.179Z,12.89
2023-03-23T06:46:00.114Z,12.89
2023-03-23T06:47:00.122Z,12.89
2023-03-23T06:48:00.119Z,12.93
2023-03-23T06:49:00.024Z,12.93
2023-03-23T06:50:00.051Z,12.95
2023-03-23T06:51:00.478Z,12.95
2023-03-23T06:52:00.228Z,12.99
2023-03-23T06:52:59.994Z,12.99
2023-03-23T06:54:00.212Z,13.03
2023-03-23T06:55:00.007Z,13.02
2023-03-23T06:55:59.962Z,13.04
2023-03-23T06:57:00.021Z,13.06
2023-03-23T06:58:00.617Z,13.06
2023-03-23T06:59:00.895Z,13.09
2023-03-23T06:59:59.929Z,13.11
2023-03-23T07:00:59.951Z,13.14
2023-03-23T07:01:59.910Z,13.15
2023-03-23T07:02:59.924Z,13.17
2023-03-23T07:03:59.998Z,13.20
2023-03-23T07:04:59.870Z,13.20
2023-03-23T07:05:59.840Z,13.21
2023-03-23T07:06:59.980Z,13.21
2023-03-23T07:08:00.826Z,13.22
2023-03-23T07:08:59.868Z,13.22
2023-03-23T07:09:59.980Z,13.18
2023-03-23T07:11:00.337Z,13.15
2023-03-23T07:11:59.875Z,13.15
2023-03-23T07:12:59.855Z,13.14
2023-03-23T07:13:59.826Z,13.15
2023-03-23T07:14:59.804Z,13.14
2023-03-23T07:15:59.809Z,13.14
2023-03-23T07:17:00.009Z,13.17
2023-03-23T07:17:59.804Z,13.15
2023-03-23T07:18:59.869Z,13.17
2023-03-23T07:19:59.808Z,13.17
2023-03-23T07:20:59.735Z,13.15
2023-03-23T07:21:59.745Z,13.17
2023-03-23T07:22:59.927Z,13.18
2023-03-23T07:23:59.676Z,13.18
2023-03-23T07:24:59.837Z,13.20
2023-03-23T07:25:59.870Z,13.20
2023-03-23T07:26:59.926Z,13.20
2023-03-23T07:28:00.114Z,13.20
2023-03-23T07:28:59.888Z,13.20
2023-03-23T07:29:59.723Z,13.22
2023-03-23T07:30:59.675Z,13.21
2023-03-23T07:31:59.787Z,13.22
2023-03-23T07:32:59.824Z,13.22
2023-03-23T07:33:59.602Z,13.25
2023-03-23T07:34:59.776Z,13.24
2023-03-23T07:35:59.797Z,13.24
2023-03-23T07:36:59.736Z,13.25
2023-03-23T07:37:59.778Z,13.24
2023-03-23T07:38:59.938Z,13.25
2023-03-23T07:39:59.810Z,13.22
2023-03-23T07:40:59.572Z,13.21
2023-03-23T07:41:59.854Z,13.21
2023-03-23T07:42:59.503Z,13.22
2023-03-23T07:43:59.515Z,13.21
2023-03-23T07:45:00.147Z,13.24
2023-03-23T07:45:59.460Z,13.22
2023-03-23T07:46:59.461Z,13.27
2023-03-23T07:47:59.912Z,13.27
2023-03-23T07:48:59.421Z,13.25
2023-03-23T07:49:59.505Z,13.24
2023-03-23T07:50:59.529Z,13.25
2023-03-23T07:51:59.453Z,13.22
2023-03-23T07:52:59.400Z,13.20
2023-03-23T07:53:59.382Z,13.20
2023-03-23T07:54:59.370Z,13.22
2023-03-23T07:55:59.346Z,13.21
2023-03-23T07:56:59.393Z,13.21
2023-03-23T07:57:59.574Z,13.20
2023-03-23T07:58:59.331Z,13.21
2023-03-23T07:59:59.349Z,13.21
2023-03-23T08:00:59.321Z,13.21
2023-03-23T08:01:59.327Z,13.21
2023-03-23T08:02:59.337Z,13.17
2023-03-23T08:03:59.316Z,13.21
2023-03-23T08:04:59.280Z,13.21
2023-03-23T08:05:59.293Z,13.22
2023-03-23T08:06:59.637Z,13.24
2023-03-23T08:07:59.273Z,13.24
2023-03-23T08:08:59.390Z,13.29
2023-03-23T08:09:59.236Z,13.33
2023-03-23T08:10:59.362Z,13.37
2023-03-23T08:11:59.216Z,13.41
2023-03-23T08:12:59.351Z,13.49
2023-03-23T08:13:59.332Z,13.55
2023-03-23T08:14:59.242Z,13.55
2023-03-23T08:15:59.155Z,13.62
2023-03-23T08:16:59.157Z,13.65
2023-03-23T08:17:59.151Z,13.71
2023-03-23T08:18:59.323Z,13.73
2023-03-23T08:19:59.227Z,13.77
2023-03-23T08:20:59.152Z,13.74
2023-03-23T08:21:59.304Z,13.77
2023-03-23T08:22:59.082Z,13.77
2023-03-23T08:23:59.273Z,13.77
2023-03-23T08:24:59.270Z,13.80
2023-03-23T08:25:59.064Z,13.83
2023-03-23T08:26:59.227Z,13.80
2023-03-23T08:27:59.231Z,13.87
2023-03-23T08:28:59.016Z,13.89
2023-03-23T08:29:59.157Z,13.92
2023-03-23T08:30:59.327Z,13.95
2023-03-23T08:31:58.989Z,13.98
2023-03-23T08:32:59.117Z,13.95
2023-03-23T08:33:59.182Z,13.92
2023-03-23T08:34:58.953Z,13.91
2023-03-23T08:35:59.329Z,13.92
2023-03-23T08:36:58.952Z,13.94
2023-03-23T08:37:59.494Z,13.96
2023-03-23T08:38:59.268Z,14.01
2023-03-23T08:39:59.002Z,14.07
2023-03-23T08:40:59.027Z,14.12
2023-03-23T08:41:59.054Z,14.17
2023-03-23T08:43:01.297Z,14.21
2023-03-23T08:43:58.855Z,14.21
2023-03-23T08:44:59.225Z,14.25
2023-03-23T08:45:58.837Z,14.25
2023-03-23T08:46:58.858Z,14.25
2023-03-23T08:47:58.846Z,14.21
2023-03-23T08:48:58.996Z,14.21
2023-03-23T08:49:58.986Z,14.28
2023-03-23T08:50:58.837Z,14.28
2023-03-23T08:51:58.834Z,14.21
2023-03-23T08:52:58.818Z,14.21
2023-03-23T08:53:58.916Z,14.20
2023-03-23T08:54:58.780Z,14.17
2023-03-23T08:55:58.886Z,14.16
2023-03-23T08:56:58.764Z,14.17
2023-03-23T08:57:58.749Z,14.14
2023-03-23T08:58:58.735Z,14.13
2023-03-23T08:59:58.754Z,14.09
2023-03-23T09:00:58.715Z,14.06
2023-03-23T09:01:58.680Z,14.01
2023-03-23T09:02:58.674Z,14.01
2023-03-23T09:03:58.681Z,13.98
2023-03-23T09:04:58.694Z,13.94
2023-03-23T09:05:58.672Z,13.91
2023-03-23T09:06:58.628Z,13.89
2023-03-23T09:07:58.634Z,13.89
2023-03-23T09:08:58.682Z,13.89
2023-03-23T09:09:58.609Z,13.87
2023-03-23T09:10:58.587Z,13.81
2023-03-23T09:11:59.619Z,13.79
2023-03-23T09:12:58.593Z,13.76
2023-03-23T09:13:58.589Z,13.71
2023-03-23T09:14:58.656Z,13.67
2023-03-23T09:15:58.833Z,13.62
2023-03-23T09:16:58.559Z,13.58
2023-03-23T09:17:58.745Z,13.58
2023-03-23T09:18:58.537Z,13.52
2023-03-23T09:19:58.507Z,13.51
2023-03-23T09:20:58.544Z,13.52
2023-03-23T09:21:58.483Z,13.51
2023-03-23T09:22:58.640Z,13.51
2023-03-23T09:23:58.462Z,13.54
2023-03-23T09:24:58.462Z,13.51
2023-03-23T09:25:58.450Z,13.52
2023-03-23T09:26:58.454Z,13.54
2023-03-23T09:27:58.438Z,13.61
2023-03-23T09:28:58.429Z,13.63
2023-03-23T09:29:58.462Z,13.65
2023-03-23T09:30:58.389Z,13.69
2023-03-23T09:31:58.387Z,13.65
2023-03-23T09:32:58.517Z,13.62
2023-03-23T09:33:58.411Z,13.56
2023-03-23T09:34:58.344Z,13.54
2023-03-23T09:35:58.394Z,13.49
2023-03-23T09:36:58.322Z,13.46
2023-03-23T09:37:58.302Z,13.43
2023-03-23T09:38:58.436Z,13.36
2023-03-23T09:40:06.424Z,13.27
2023-03-23T09:40:58.283Z,13.24
2023-03-23T09:41:58.263Z,13.14
2023-03-23T09:42:58.295Z,12.96
2023-03-23T09:43:58.275Z,12.75
2023-03-23T09:44:58.297Z,12.42
2023-03-23T09:45:58.265Z,12.08
2023-03-23T09:46:58.242Z,11.82
2023-03-23T09:47:58.247Z,11.59
2023-03-23T09:48:58.210Z,11.27
2023-03-23T09:49:58.212Z,11.06
2023-03-23T09:50:58.212Z,10.92
2023-03-23T09:51:58.198Z,10.77
2023-03-23T09:52:58.197Z,10.66
2023-03-23T09:53:58.171Z,10.55
2023-03-23T09:54:58.157Z,10.53
2023-03-23T09:55:58.155Z,10.51
2023-03-23T09:56:58.216Z,10.47
2023-03-23T09:57:58.116Z,10.53
2023-03-23T09:58:58.146Z,10.56
2023-03-23T09:59:58.111Z,10.58
2023-03-23T10:00:58.159Z,10.59
2023-03-23T10:01:58.113Z,10.62
2023-03-23T10:02:58.146Z,10.65
2023-03-23T10:03:58.143Z,10.66
2023-03-23T10:04:58.057Z,10.65
2023-03-23T10:05:58.064Z,10.70
2023-03-23T10:06:58.067Z,10.78
2023-03-23T10:07:58.037Z,10.84
2023-03-23T10:08:58.090Z,10.91
2023-03-23T10:09:58.024Z,11.03
2023-03-23T10:10:57.995Z,11.11
2023-03-23T10:11:58.004Z,11.13
2023-03-23T10:12:57.991Z,11.09
2023-03-23T10:13:58.109Z,11.09
2023-03-23T10:14:58.004Z,11.02
2023-03-23T10:15:57.980Z,10.95
2023-03-23T10:16:57.971Z,10.92
2023-03-23T10:17:57.946Z,10.86
2023-03-23T10:18:57.941Z,10.88
2023-03-23T10:19:57.950Z,10.91
2023-03-23T10:20:57.985Z,10.88
2023-03-23T10:21:57.917Z,10.89
2023-03-23T10:22:57.866Z,10.91
2023-03-23T10:23:57.886Z,10.94
2023-03-23T10:24:57.866Z,10.94
2023-03-23T10:25:57.863Z,10.91
2023-03-23T10:26:57.872Z,10.91
2023-03-23T10:27:57.826Z,10.88
2023-03-23T10:28:57.814Z,10.83
2023-03-23T10:29:57.871Z,10.73
2023-03-23T10:30:57.814Z,10.76
2023-03-23T10:31:57.808Z,10.73
2023-03-23T10:32:57.831Z,10.74
2023-03-23T10:33:57.767Z,10.76
2023-03-23T10:34:57.789Z,10.74
2023-03-23T10:35:57.832Z,10.74
2023-03-23T10:36:57.746Z,10.78
2023-03-23T10:37:57.747Z,10.80
2023-03-23T10:38:57.751Z,10.81
2023-03-23T10:39:57.726Z,10.80
2023-03-23T10:40:57.706Z,10.73
2023-03-23T10:41:57.716Z,10.76
2023-03-23T10:42:57.701Z,10.76
2023-03-23T10:43:57.707Z,10.76
2023-03-23T10:44:57.726Z,10.80
2023-03-23T10:46:00.731Z,10.83
2023-03-23T10:46:57.652Z,10.84
2023-03-23T10:47:57.647Z,10.89
2023-03-23T10:48:57.639Z,10.95
2023-03-23T10:49:57.610Z,11.07
2023-03-23T10:50:57.622Z,11.07
2023-03-23T10:51:57.637Z,11.09
2023-03-23T10:52:57.606Z,11.09
2023-03-23T10:53:57.588Z,11.13
2023-03-23T10:54:57.564Z,11.14
2023-03-23T10:55:57.554Z,11.11
2023-03-23T10:57:00.360Z,11.11
2023-03-23T10:57:57.569Z,11.10
2023-03-23T10:58:57.550Z,11.03
2023-03-23T10:59:57.553Z,10.98
2023-03-23T11:00:57.542Z,10.83
2023-03-23T11:01:57.510Z,10.77
2023-03-23T11:02:57.595Z,10.74
2023-03-23T11:03:57.470Z,10.63
2023-03-23T11:04:58.438Z,10.58
2023-03-23T11:05:57.467Z,10.55
2023-03-23T11:06:57.514Z,10.51
2023-03-23T11:07:57.449Z,10.47
2023-03-23T11:08:57.489Z,10.46
2023-03-23T11:09:57.431Z,10.46
2023-03-23T11:10:57.419Z,10.47
2023-03-23T11:12:02.130Z,10.44
2023-03-23T11:12:57.410Z,10.43
2023-03-23T11:13:57.445Z,10.44
2023-03-23T11:14:57.395Z,10.53
2023-03-23T11:15:57.371Z,10.56
2023-03-23T11:16:59.436Z,10.56
2023-03-23T11:17:57.308Z,10.52
2023-03-23T11:18:57.324Z,10.51
2023-03-23T11:19:57.319Z,10.53
2023-03-23T11:20:57.336Z,10.44
2023-03-23T11:21:57.302Z,10.34
2023-03-23T11:22:57.320Z,10.36
2023-03-23T11:24:09.056Z,10.40
2023-03-23T11:24:57.310Z,10.51
2023-03-23T11:25:57.270Z,10.63
2023-03-23T11:26:58.887Z,10.65
2023-03-23T11:27:57.249Z,10.74
2023-03-23T11:28:57.242Z,10.80
2023-03-23T11:29:58.634Z,10.88
2023-03-23T11:30:57.208Z,10.92
2023-03-23T11:31:57.241Z,10.91
2023-03-23T11:32:57.271Z,10.98
2023-03-23T11:34:05.770Z,11.03
2023-03-23T11:35:01.496Z,11.09
2023-03-23T11:35:57.194Z,10.99
2023-03-23T11:36:58.987Z,10.95
2023-03-23T11:37:57.138Z,10.95
2023-03-23T11:38:57.192Z,10.98
2023-03-23T11:39:57.140Z,11.01
2023-03-23T11:40:57.113Z,11.03
2023-03-23T11:42:08.824Z,11.09
2023-03-23T11:42:57.114Z,11.01
2023-03-23T11:43:57.067Z,10.99
2023-03-23T11:44:57.274Z,11.02
2023-03-23T11:45:57.275Z,11.09
2023-03-23T11:46:57.245Z,11.09
2023-03-23T11:47:57.152Z,10.98
2023-03-23T11:48:57.040Z,10.95
2023-03-23T11:49:57.198Z,10.94
2023-03-23T11:50:57.561Z,11.06
2023-03-23T11:51:57.354Z,11.20
2023-03-23T11:52:56.993Z,11.24
2023-03-23T11:53:57.071Z,11.31
2023-03-23T11:54:56.987Z,11.34
2023-03-23T11:55:57.223Z,11.43
2023-03-23T11:56:57.185Z,11.43
2023-03-23T11:57:56.957Z,11.53
2023-03-23T11:58:57.190Z,11.62
2023-03-23T11:59:56.923Z,11.67
2023-03-23T12:00:57.011Z,11.70
2023-03-23T12:01:59.579Z,11.71
2023-03-23T12:02:56.970Z,11.70
2023-03-23T12:03:57.038Z,11.86
2023-03-23T12:04:57.035Z,11.94
2023-03-23T12:05:56.961Z,11.93
2023-03-23T12:06:56.846Z,11.86
2023-03-23T12:07:56.816Z,11.90
2023-03-23T12:08:57.181Z,11.86
2023-03-23T12:09:57.378Z,11.82
2023-03-23T12:10:57.517Z,11.68
2023-03-23T12:11:56.822Z,11.62
2023-03-23T12:12:56.804Z,11.61
2023-03-23T12:13:58.738Z,11.59
2023-03-23T12:14:56.800Z,11.54
2023-03-23T12:15:56.781Z,11.50
2023-03-23T12:16:56.734Z,11.50
2023-03-23T12:17:56.741Z,11.53
2023-03-23T12:18:56.812Z,11.53
2023-03-23T12:19:56.718Z,11.57
2023-03-23T12:20:56.750Z,11.61
2023-03-23T12:21:56.713Z,11.61
2023-03-23T12:22:56.900Z,11.65
2023-03-23T12:23:57.681Z,11.67
2023-03-23T12:24:56.685Z,11.71
2023-03-23T12:25:57.091Z,11.61
2023-03-23T12:26:56.727Z,11.54
2023-03-23T12:27:56.665Z,11.54
2023-03-23T12:28:56.668Z,11.56
2023-03-23T12:29:56.644Z,11.54
2023-03-23T12:30:56.669Z,11.59
2023-03-23T12:31:56.703Z,11.54
2023-03-23T12:32:57.091Z,11.53
2023-03-23T12:33:56.680Z,11.56
2023-03-23T12:34:56.595Z,11.61
2023-03-23T12:35:56.613Z,11.70
2023-03-23T12:36:56.576Z,11.77
2023-03-23T12:37:56.738Z,11.82
2023-03-23T12:38:56.557Z,11.93
2023-03-23T12:39:56.589Z,12.12
2023-03-23T12:40:57.112Z,12.42
2023-03-23T12:41:56.752Z,12.63
2023-03-23T12:42:56.543Z,12.95
2023-03-23T12:43:56.480Z,13.06
2023-03-23T12:44:56.520Z,13.11
2023-03-23T12:45:56.471Z,13.11
2023-03-23T12:46:56.521Z,12.84
2023-03-23T12:47:56.524Z,12.85
2023-03-23T12:48:56.510Z,12.84
2023-03-23T12:49:56.618Z,12.82
2023-03-23T12:50:56.755Z,12.82
2023-03-23T12:51:58.096Z,12.87